createdAt,value
2023-02-01T00:00:21.079Z,1002.78
2023-02-01T00:01:20.748Z,1002.77
2023-02-01T00:02:20.786Z,1002.78
2023-02-01T00:03:20.791Z,1002.71
2023-02-01T00:04:20.736Z,1002.71
2023-02-01T00:05:20.700Z,1002.76
2023-02-01T00:06:20.698Z,1002.79
2023-02-01T00:07:20.689Z,1002.85
2023-02-01T00:08:20.703Z,1002.79
2023-02-01T00:09:20.667Z,1002.83
2023-02-01T00:10:20.969Z,1002.86
2023-02-01T00:11:20.652Z,1002.85
2023-02-01T00:12:20.634Z,1002.85
2023-02-01T00:13:27.688Z,1002.85
2023-02-01T00:14:20.628Z,1002.84
2023-02-01T00:15:23.249Z,1002.82
2023-02-01T00:16:20.621Z,1002.83
2023-02-01T00:17:20.579Z,1002.77
2023-02-01T00:18:20.569Z,1002.79
2023-02-01T00:19:20.577Z,1002.72
2023-02-01T00:20:20.880Z,1002.77
2023-02-01T00:21:20.546Z,1002.68
2023-02-01T00:22:20.530Z,1002.69
2023-02-01T00:23:20.511Z,1002.72
2023-02-01T00:24:20.533Z,1002.63
2023-02-01T00:25:20.517Z,1002.61
2023-02-01T00:26:20.559Z,1002.59
2023-02-01T00:27:20.469Z,1002.51
2023-02-01T00:28:20.464Z,1002.53
2023-02-01T00:29:20.446Z,1002.52
2023-02-01T00:30:20.761Z,1002.52
2023-02-01T00:31:20.559Z,1002.56
2023-02-01T00:32:20.468Z,1002.59
2023-02-01T00:33:20.407Z,1002.60
2023-02-01T00:34:20.389Z,1002.55
2023-02-01T00:35:20.379Z,1002.55
2023-02-01T00:36:20.367Z,1002.53
2023-02-01T00:37:20.377Z,1002.54
2023-02-01T00:38:20.347Z,1002.53
2023-02-01T00:39:20.345Z,1002.57
2023-02-01T00:40:20.659Z,1002.55
2023-02-01T00:41:20.308Z,1002.57
2023-02-01T00:42:20.318Z,1002.61
2023-02-01T00:43:20.315Z,1002.67
2023-02-01T00:44:20.278Z,1002.64
2023-02-01T00:45:20.266Z,1002.69
2023-02-01T00:46:20.406Z,1002.71
2023-02-01T00:47:20.249Z,1002.65
2023-02-01T00:48:20.238Z,1002.57
2023-02-01T00:49:20.254Z,1002.54
2023-02-01T00:50:20.558Z,1002.50
2023-02-01T00:51:20.201Z,1002.52
2023-02-01T00:52:20.208Z,1002.52
2023-02-01T00:53:20.181Z,1002.54
2023-02-01T00:54:20.166Z,1002.52
2023-02-01T00:55:20.187Z,1002.60
2023-02-01T00:56:20.185Z,1002.48
2023-02-01T00:57:20.138Z,1002.54
2023-02-01T00:58:20.126Z,1002.60
2023-02-01T00:59:20.118Z,1002.54
2023-02-01T01:00:20.369Z,1002.56
2023-02-01T01:01:20.146Z,1002.52
2023-02-01T01:02:20.107Z,1002.53
2023-02-01T01:03:20.066Z,1002.51
2023-02-01T01:04:20.055Z,1002.50
2023-02-01T01:05:20.036Z,1002.46
2023-02-01T01:06:20.039Z,1002.51
2023-02-01T01:07:20.036Z,1002.47
2023-02-01T01:08:20.009Z,1002.36
2023-02-01T01:09:20.012Z,1002.34
2023-02-01T01:10:20.360Z,1002.35
2023-02-01T01:11:19.995Z,1002.30
2023-02-01T01:12:19.966Z,1002.29
2023-02-01T01:13:19.976Z,1002.42
2023-02-01T01:14:19.935Z,1002.44
2023-02-01T01:15:19.924Z,1002.46
2023-02-01T01:16:19.960Z,1002.47
2023-02-01T01:17:19.904Z,1002.56
2023-02-01T01:18:19.923Z,1002.55
2023-02-01T01:19:19.894Z,1002.54
2023-02-01T01:20:20.219Z,1002.48
2023-02-01T01:21:19.891Z,1002.52
2023-02-01T01:22:19.856Z,1002.58
2023-02-01T01:23:19.838Z,1002.51
2023-02-01T01:24:19.844Z,1002.53
2023-02-01T01:25:19.839Z,1002.48
2023-02-01T01:26:19.840Z,1002.46
2023-02-01T01:27:19.790Z,1002.48
2023-02-01T01:28:19.774Z,1002.43
2023-02-01T01:29:19.766Z,1002.38
2023-02-01T01:30:20.264Z,1002.32
2023-02-01T01:31:19.840Z,1002.36
2023-02-01T01:32:19.734Z,1002.28
2023-02-01T01:33:19.714Z,1002.31
2023-02-01T01:34:19.706Z,1002.26
2023-02-01T01:35:19.697Z,1002.23
2023-02-01T01:36:19.693Z,1002.22
2023-02-01T01:37:19.694Z,1002.27
2023-02-01T01:38:19.654Z,1002.25
2023-02-01T01:39:19.654Z,1002.28
2023-02-01T01:40:19.900Z,1002.26
2023-02-01T01:41:19.632Z,1002.30
2023-02-01T01:42:19.614Z,1002.29
2023-02-01T01:43:19.633Z,1002.31
2023-02-01T01:44:19.595Z,1002.28
2023-02-01T01:45:19.584Z,1002.29
2023-02-01T01:46:19.606Z,1002.32
2023-02-01T01:47:19.575Z,1002.33
2023-02-01T01:48:19.545Z,1002.32
2023-02-01T01:49:19.577Z,1002.28
2023-02-01T01:50:19.907Z,1002.27
2023-02-01T01:51:19.522Z,1002.21
2023-02-01T01:52:19.507Z,1002.17
2023-02-01T01:53:19.494Z,1002.05
2023-02-01T01:54:19.491Z,1002.11
2023-02-01T01:55:19.491Z,1002.04
2023-02-01T01:56:19.459Z,1002.08
2023-02-01T01:57:19.443Z,1001.99
2023-02-01T01:58:19.447Z,1001.95
2023-02-01T01:59:19.422Z,1001.92
2023-02-01T02:00:19.534Z,1001.95
2023-02-01T02:01:19.413Z,1001.94
2023-02-01T02:02:19.439Z,1002.00
2023-02-01T02:03:19.454Z,1001.94
2023-02-01T02:04:19.363Z,1001.94
2023-02-01T02:05:19.352Z,1001.89
2023-02-01T02:06:19.337Z,1001.96
2023-02-01T02:07:19.373Z,1001.88
2023-02-01T02:08:19.313Z,1001.85
2023-02-01T02:09:19.304Z,1001.85
2023-02-01T02:10:19.600Z,1001.80
2023-02-01T02:11:19.283Z,1001.85
2023-02-01T02:12:19.271Z,1001.86
2023-02-01T02:13:19.352Z,1001.80
2023-02-01T02:14:19.242Z,1001.76
2023-02-01T02:15:19.255Z,1001.73
2023-02-01T02:16:19.270Z,1001.82
2023-02-01T02:17:19.212Z,1001.89
2023-02-01T02:18:19.204Z,1001.90
2023-02-01T02:19:19.210Z,1001.90
2023-02-01T02:20:19.175Z,1001.84
2023-02-01T02:21:19.167Z,1001.77
2023-02-01T02:22:19.153Z,1001.85
2023-02-01T02:23:19.156Z,1001.93
2023-02-01T02:24:19.124Z,1001.91
2023-02-01T02:25:19.155Z,1001.97
2023-02-01T02:26:19.234Z,1001.94
2023-02-01T02:27:19.103Z,1001.94
2023-02-01T02:28:19.090Z,1001.96
2023-02-01T02:29:19.079Z,1002.00
2023-02-01T02:30:19.160Z,1002.03
2023-02-01T02:31:19.111Z,1002.06
2023-02-01T02:32:19.049Z,1002.05
2023-02-01T02:33:19.034Z,1002.05
2023-02-01T02:34:19.016Z,1002.15
2023-02-01T02:35:19.015Z,1002.06
2023-02-01T02:36:19.019Z,1002.06
2023-02-01T02:37:19.004Z,1002.06
2023-02-01T02:38:18.977Z,1002.07
2023-02-01T02:39:18.964Z,1002.08
2023-02-01T02:40:18.940Z,1002.02
2023-02-01T02:41:18.952Z,1002.05
2023-02-01T02:42:18.921Z,1001.93
2023-02-01T02:43:18.948Z,1002.03
2023-02-01T02:44:18.892Z,1002.03
2023-02-01T02:45:18.905Z,1001.99
2023-02-01T02:46:18.887Z,1001.97
2023-02-01T02:47:18.901Z,1001.95
2023-02-01T02:48:18.858Z,1001.92
2023-02-01T02:49:18.871Z,1001.85
2023-02-01T02:50:18.836Z,1001.86
2023-02-01T02:51:18.832Z,1001.86
2023-02-01T02:52:18.810Z,1001.92
2023-02-01T02:53:18.809Z,1001.91
2023-02-01T02:54:18.794Z,1001.95
2023-02-01T02:55:18.791Z,1001.88
2023-02-01T02:56:18.761Z,1001.92
2023-02-01T02:57:18.775Z,1001.85
2023-02-01T02:58:18.753Z,1001.83
2023-02-01T02:59:18.727Z,1001.84
2023-02-01T03:00:18.734Z,1001.80
2023-02-01T03:01:18.771Z,1001.79
2023-02-01T03:02:18.718Z,1001.78
2023-02-01T03:03:18.679Z,1001.80
2023-02-01T03:04:18.676Z,1001.80
2023-02-01T03:05:49.269Z,1001.76
2023-02-01T03:06:49.269Z,1001.80
2023-02-01T03:07:49.240Z,1001.76
2023-02-01T03:08:49.236Z,1001.71
2023-02-01T03:09:49.231Z,1001.74
2023-02-01T03:10:49.286Z,1001.68
2023-02-01T03:11:49.190Z,1001.63
2023-02-01T03:12:49.218Z,1001.62
2023-02-01T03:13:49.191Z,1001.68
2023-02-01T03:14:49.164Z,1001.62
2023-02-01T03:15:49.167Z,1001.61
2023-02-01T03:16:49.228Z,1001.71
2023-02-01T03:17:49.119Z,1001.74
2023-02-01T03:18:49.181Z,1001.67
2023-02-01T03:19:49.109Z,1001.65
2023-02-01T03:20:49.088Z,1001.59
2023-02-01T03:21:49.083Z,1001.53
2023-02-01T03:22:49.081Z,1001.55
2023-02-01T03:23:49.068Z,1001.58
2023-02-01T03:24:49.059Z,1001.54
2023-02-01T03:25:49.038Z,1001.64
2023-02-01T03:26:49.073Z,1001.56
2023-02-01T03:27:49.010Z,1001.62
2023-02-01T03:28:49.005Z,1001.62
2023-02-01T03:29:49.011Z,1001.61
2023-02-01T03:30:48.977Z,1001.57
2023-02-01T03:31:49.030Z,1001.52
2023-02-01T03:32:48.947Z,1001.60
2023-02-01T03:33:48.937Z,1001.65
2023-02-01T03:34:48.927Z,1001.64
2023-02-01T03:35:48.937Z,1001.67
2023-02-01T03:36:48.901Z,1001.62
2023-02-01T03:37:48.893Z,1001.60
2023-02-01T03:38:48.879Z,1001.53
2023-02-01T03:39:48.898Z,1001.47
2023-02-01T03:40:48.877Z,1001.51
2023-02-01T03:41:48.837Z,1001.51
2023-02-01T03:42:48.847Z,1001.54
2023-02-01T03:43:48.820Z,1001.48
2023-02-01T03:44:48.817Z,1001.54
2023-02-01T03:45:48.893Z,1001.46
2023-02-01T03:46:48.828Z,1001.37
2023-02-01T03:47:48.782Z,1001.39
2023-02-01T03:48:48.770Z,1001.35
2023-02-01T03:49:48.748Z,1001.29
2023-02-01T03:50:48.749Z,1001.39
2023-02-01T03:51:48.737Z,1001.30
2023-02-01T03:52:48.736Z,1001.35
2023-02-01T03:53:48.697Z,1001.35
2023-02-01T03:54:48.697Z,1001.34
2023-02-01T03:55:48.680Z,1001.35
2023-02-01T03:56:48.682Z,1001.36
2023-02-01T03:57:48.656Z,1001.32
2023-02-01T03:58:48.716Z,1001.35
2023-02-01T03:59:48.645Z,1001.39
2023-02-01T04:00:48.646Z,1001.35
2023-02-01T04:01:48.606Z,1001.32
2023-02-01T04:02:48.635Z,1001.33
2023-02-01T04:03:48.577Z,1001.34
2023-02-01T04:04:48.616Z,1001.42
2023-02-01T04:05:48.566Z,1001.49
2023-02-01T04:06:48.558Z,1001.55
2023-02-01T04:07:48.550Z,1001.55
2023-02-01T04:08:48.540Z,1001.46
2023-02-01T04:09:48.515Z,1001.49
2023-02-01T04:10:48.525Z,1001.51
2023-02-01T04:11:48.496Z,1001.53
2023-02-01T04:12:48.476Z,1001.58
2023-02-01T04:13:48.467Z,1001.65
2023-02-01T04:14:48.467Z,1001.63
2023-02-01T04:15:48.495Z,1001.61
2023-02-01T04:16:48.485Z,1001.66
2023-02-01T04:17:48.427Z,1001.61
2023-02-01T04:18:48.437Z,1001.49
2023-02-01T04:19:48.402Z,1001.51
2023-02-01T04:20:48.388Z,1001.51
2023-02-01T04:21:48.424Z,1001.48
2023-02-01T04:22:48.398Z,1001.53
2023-02-01T04:23:48.363Z,1001.55
2023-02-01T04:24:48.367Z,1001.53
2023-02-01T04:25:48.353Z,1001.62
2023-02-01T04:26:48.449Z,1001.66
2023-02-01T04:27:48.326Z,1001.62
2023-02-01T04:28:48.298Z,1001.63
2023-02-01T04:29:48.283Z,1001.59
2023-02-01T04:30:48.359Z,1001.59
2023-02-01T04:31:48.389Z,1001.62
2023-02-01T04:32:48.267Z,1001.54
2023-02-01T04:33:48.255Z,1001.62
2023-02-01T04:34:48.226Z,1001.55
2023-02-01T04:35:48.239Z,1001.57
2023-02-01T04:36:48.207Z,1001.52
2023-02-01T04:37:48.204Z,1001.54
2023-02-01T04:38:48.205Z,1001.55
2023-02-01T04:39:48.176Z,1001.55
2023-02-01T04:40:48.165Z,1001.58
2023-02-01T04:41:48.155Z,1001.59
2023-02-01T04:42:48.165Z,1001.57
2023-02-01T04:43:48.158Z,1001.49
2023-02-01T04:44:48.135Z,1001.46
2023-02-01T04:45:48.125Z,1001.46
2023-02-01T04:46:48.105Z,1001.41
2023-02-01T04:47:48.075Z,1001.39
2023-02-01T04:48:48.065Z,1001.36
2023-02-01T04:49:48.055Z,1001.34
2023-02-01T04:50:48.073Z,1001.38
2023-02-01T04:51:48.025Z,1001.38
2023-02-01T04:52:48.014Z,1001.32
2023-02-01T04:53:48.007Z,1001.36
2023-02-01T04:54:47.998Z,1001.34
2023-02-01T04:55:47.986Z,1001.43
2023-02-01T04:56:48.015Z,1001.40
2023-02-01T04:57:47.955Z,1001.43
2023-02-01T04:58:47.945Z,1001.43
2023-02-01T04:59:47.954Z,1001.36
2023-02-01T05:00:47.928Z,1001.39
2023-02-01T05:01:48.986Z,1001.42
2023-02-01T05:02:47.933Z,1001.46
2023-02-01T05:03:47.884Z,1001.47
2023-02-01T05:04:47.907Z,1001.41
2023-02-01T05:05:47.864Z,1001.42
2023-02-01T05:06:47.854Z,1001.36
2023-02-01T05:07:47.865Z,1001.44
2023-02-01T05:08:47.847Z,1001.41
2023-02-01T05:09:47.814Z,1001.39
2023-02-01T05:10:47.814Z,1001.39
2023-02-01T05:11:47.795Z,1001.36
2023-02-01T05:12:47.790Z,1001.31
2023-02-01T05:13:47.795Z,1001.33
2023-02-01T05:14:47.763Z,1001.31
2023-02-01T05:15:47.776Z,1001.34
2023-02-01T05:16:47.752Z,1001.44
2023-02-01T05:17:47.733Z,1001.41
2023-02-01T05:18:47.771Z,1001.40
2023-02-01T05:19:47.703Z,1001.44
2023-02-01T05:20:47.697Z,1001.43
2023-02-01T05:21:47.675Z,1001.38
2023-02-01T05:22:47.669Z,1001.37
2023-02-01T05:23:47.654Z,1001.40
2023-02-01T05:24:47.677Z,1001.33
2023-02-01T05:25:47.637Z,1001.40
2023-02-01T05:26:47.661Z,1001.32
2023-02-01T05:27:47.604Z,1001.34
2023-02-01T05:28:47.593Z,1001.26
2023-02-01T05:29:47.588Z,1001.18
2023-02-01T05:30:47.700Z,1001.19
2023-02-01T05:31:47.726Z,1001.20
2023-02-01T05:32:47.553Z,1001.20
2023-02-01T05:33:47.533Z,1001.21
2023-02-01T05:34:47.534Z,1001.30
2023-02-01T05:35:47.515Z,1001.17
2023-02-01T05:36:47.536Z,1001.14
2023-02-01T05:37:47.485Z,1001.14
2023-02-01T05:38:47.481Z,1001.10
2023-02-01T05:39:47.464Z,1001.08
2023-02-01T05:40:47.456Z,1001.06
2023-02-01T05:41:47.466Z,1001.06
2023-02-01T05:42:47.433Z,1000.96
2023-02-01T05:43:47.417Z,1001.05
2023-02-01T05:44:47.421Z,1001.00
2023-02-01T05:45:47.392Z,1001.04
2023-02-01T05:46:49.858Z,1000.97
2023-02-01T05:47:47.406Z,1000.99
2023-02-01T05:48:47.362Z,1000.96
2023-02-01T05:49:47.344Z,1000.99
2023-02-01T05:50:47.342Z,1001.02
2023-02-01T05:51:47.327Z,1001.04
2023-02-01T05:52:47.321Z,1001.03
2023-02-01T05:53:47.473Z,1001.04
2023-02-01T05:54:47.292Z,1001.02
2023-02-01T05:55:47.333Z,1001.13
2023-02-01T05:56:47.283Z,1001.11
2023-02-01T05:57:47.256Z,1001.16
2023-02-01T05:58:47.262Z,1001.11
2023-02-01T05:59:47.233Z,1001.14
2023-02-01T06:00:47.298Z,1001.16
2023-02-01T06:01:47.213Z,1001.12
2023-02-01T06:02:47.242Z,1001.22
2023-02-01T06:03:47.243Z,1001.20
2023-02-01T06:04:47.222Z,1001.09
2023-02-01T06:05:47.181Z,1001.15
2023-02-01T06:06:47.161Z,1001.26
2023-02-01T06:07:47.525Z,1001.10
2023-02-01T06:08:47.131Z,1001.09
2023-02-01T06:09:47.150Z,1001.06
2023-02-01T06:10:47.112Z,1001.03
2023-02-01T06:11:47.095Z,1001.14
2023-02-01T06:12:47.081Z,1001.15
2023-02-01T06:13:47.071Z,1001.14
2023-02-01T06:14:47.061Z,1001.20
2023-02-01T06:15:47.104Z,1001.07
2023-02-01T06:16:47.051Z,1001.26
2023-02-01T06:17:47.029Z,1001.19
2023-02-01T06:18:47.022Z,1001.22
2023-02-01T06:19:47.013Z,1001.17
2023-02-01T06:20:46.991Z,1001.18
2023-02-01T06:21:47.002Z,1001.17
2023-02-01T06:22:46.978Z,1001.16
2023-02-01T06:23:46.961Z,1001.11
2023-02-01T06:24:46.952Z,1001.05
2023-02-01T06:25:46.942Z,1001.13
2023-02-01T06:26:46.945Z,1001.12
2023-02-01T06:27:46.929Z,1001.10
2023-02-01T06:28:46.903Z,1001.14
2023-02-01T06:29:46.893Z,1001.16
2023-02-01T06:30:46.923Z,1001.20
2023-02-01T06:31:46.899Z,1001.11
2023-02-01T06:32:46.900Z,1001.18
2023-02-01T06:33:46.853Z,1001.20
2023-02-01T06:34:46.870Z,1001.17
2023-02-01T06:35:46.820Z,1001.20
2023-02-01T06:36:46.820Z,1001.25
2023-02-01T06:37:46.800Z,1001.21
2023-02-01T06:38:46.825Z,1001.26
2023-02-01T06:39:46.780Z,1001.31
2023-02-01T06:40:46.802Z,1001.30
2023-02-01T06:41:46.765Z,1001.32
2023-02-01T06:42:46.752Z,1001.34
2023-02-01T06:43:46.729Z,1001.36
2023-02-01T06:44:46.742Z,1001.26
2023-02-01T06:45:46.710Z,1001.32
2023-02-01T06:46:46.743Z,1001.27
2023-02-01T06:47:46.689Z,1001.24
2023-02-01T06:48:46.681Z,1001.21
2023-02-01T06:49:46.693Z,1001.20
2023-02-01T06:50:46.661Z,1001.16
2023-02-01T06:51:46.640Z,1001.19
2023-02-01T06:52:46.642Z,1001.15
2023-02-01T06:53:46.620Z,1001.15
2023-02-01T06:54:46.647Z,1001.15
2023-02-01T06:55:46.621Z,1001.16
2023-02-01T06:56:46.612Z,1001.14
2023-02-01T06:57:46.574Z,1001.13
2023-02-01T06:58:46.580Z,1001.04
2023-02-01T06:59:46.549Z,1001.05
2023-02-01T07:00:46.620Z,1000.98
2023-02-01T07:01:46.587Z,1001.04
2023-02-01T07:02:53.565Z,1000.99
2023-02-01T07:03:46.514Z,1000.97
2023-02-01T07:04:46.502Z,1000.99
2023-02-01T07:05:46.502Z,1000.89
2023-02-01T07:06:46.483Z,1000.96
2023-02-01T07:07:46.491Z,1000.96
2023-02-01T07:08:46.471Z,1001.02
2023-02-01T07:09:46.445Z,1001.00
2023-02-01T07:10:46.437Z,1001.09
2023-02-01T07:11:46.429Z,1001.06
2023-02-01T07:12:46.410Z,1001.15
2023-02-01T07:13:46.427Z,1001.17
2023-02-01T07:14:46.389Z,1001.11
2023-02-01T07:15:46.382Z,1001.07
2023-02-01T07:16:46.362Z,1001.04
2023-02-01T07:17:46.352Z,1001.09
2023-02-01T07:18:46.343Z,1001.19
2023-02-01T07:19:46.349Z,1001.23
2023-02-01T07:20:46.323Z,1001.25
2023-02-01T07:21:46.309Z,1001.36
2023-02-01T07:22:46.291Z,1001.31
2023-02-01T07:23:46.279Z,1001.39
2023-02-01T07:24:46.332Z,1001.33
2023-02-01T07:25:46.252Z,1001.29
2023-02-01T07:26:46.263Z,1001.34
2023-02-01T07:27:46.496Z,1001.37
2023-02-01T07:28:46.233Z,1001.35
2023-02-01T07:29:46.210Z,1001.41
2023-02-01T07:30:46.253Z,1001.42
2023-02-01T07:31:46.199Z,1001.38
2023-02-01T07:32:46.981Z,1001.38
2023-02-01T07:33:46.180Z,1001.40
2023-02-01T07:34:46.163Z,1001.36
2023-02-01T07:35:46.179Z,1001.39
2023-02-01T07:36:46.129Z,1001.36
2023-02-01T07:37:46.110Z,1001.42
2023-02-01T07:38:46.100Z,1001.37
2023-02-01T07:39:46.100Z,1001.40
2023-02-01T07:40:46.098Z,1001.51
2023-02-01T07:41:46.090Z,1001.34
2023-02-01T07:42:46.068Z,1001.44
2023-02-01T07:43:46.040Z,1001.44
2023-02-01T07:44:46.031Z,1001.41
2023-02-01T07:45:46.032Z,1001.43
2023-02-01T07:46:46.030Z,1001.45
2023-02-01T07:47:45.997Z,1001.46
2023-02-01T07:48:46.001Z,1001.51
2023-02-01T07:49:45.970Z,1001.36
2023-02-01T07:50:45.966Z,1001.48
2023-02-01T07:51:45.984Z,1001.49
2023-02-01T07:52:45.950Z,1001.48
2023-02-01T07:53:45.932Z,1001.50
2023-02-01T07:54:45.920Z,1001.40
2023-02-01T07:55:45.913Z,1001.41
2023-02-01T07:56:45.890Z,1001.46
2023-02-01T07:57:45.913Z,1001.34
2023-02-01T07:58:45.880Z,1001.46
2023-02-01T07:59:45.869Z,1001.45
2023-02-01T08:00:45.914Z,1001.41
2023-02-01T08:01:45.840Z,1001.40
2023-02-01T08:02:45.819Z,1001.41
2023-02-01T08:03:45.828Z,1001.38
2023-02-01T08:04:45.808Z,1001.42
2023-02-01T08:05:45.804Z,1001.40
2023-02-01T08:06:45.793Z,1001.45
2023-02-01T08:07:45.769Z,1001.53
2023-02-01T08:08:45.781Z,1001.48
2023-02-01T08:09:45.740Z,1001.42
2023-02-01T08:10:45.727Z,1001.55
2023-02-01T08:11:45.730Z,1001.56
2023-02-01T08:12:45.711Z,1001.54
2023-02-01T08:13:45.698Z,1001.58
2023-02-01T08:14:45.710Z,1001.57
2023-02-01T08:15:45.679Z,1001.57
2023-02-01T08:16:45.669Z,1001.55
2023-02-01T08:17:47.842Z,1001.56
2023-02-01T08:18:45.648Z,1001.59
2023-02-01T08:19:45.633Z,1001.62
2023-02-01T08:20:45.641Z,1001.60
2023-02-01T08:21:45.608Z,1001.62
2023-02-01T08:22:45.599Z,1001.54
2023-02-01T08:23:45.596Z,1001.58
2023-02-01T08:24:45.581Z,1001.66
2023-02-01T08:25:45.559Z,1001.64
2023-02-01T08:26:45.690Z,1001.61
2023-02-01T08:27:45.538Z,1001.66
2023-02-01T08:28:45.542Z,1001.60
2023-02-01T08:29:45.518Z,1001.59
2023-02-01T08:30:45.556Z,1001.70
2023-02-01T08:31:45.513Z,1001.63
2023-02-01T08:32:45.504Z,1001.59
2023-02-01T08:33:45.476Z,1001.71
2023-02-01T08:34:45.489Z,1001.63
2023-02-01T08:35:45.461Z,1001.64
2023-02-01T08:36:45.443Z,1001.62
2023-02-01T08:37:45.428Z,1001.68
2023-02-01T08:38:45.444Z,1001.60
2023-02-01T08:39:47.620Z,1001.62
2023-02-01T08:40:45.396Z,1001.64
2023-02-01T08:41:45.378Z,1001.64
2023-02-01T08:42:45.382Z,1001.55
2023-02-01T08:43:45.395Z,1001.58
2023-02-01T08:44:45.368Z,1001.58
2023-02-01T08:45:45.394Z,1001.61
2023-02-01T08:46:45.321Z,1001.62
2023-02-01T08:47:45.319Z,1001.51
2023-02-01T08:48:45.298Z,1001.45
2023-02-01T08:49:45.320Z,1001.55
2023-02-01T08:50:45.278Z,1001.58
2023-02-01T08:51:45.268Z,1001.65
2023-02-01T08:52:45.281Z,1001.62
2023-02-01T08:53:45.263Z,1001.67
2023-02-01T08:54:45.259Z,1001.66
2023-02-01T08:55:45.308Z,1001.66
2023-02-01T08:56:45.263Z,1001.66
2023-02-01T08:57:45.201Z,1001.70
2023-02-01T08:58:45.215Z,1001.60
2023-02-01T08:59:45.187Z,1001.64
2023-02-01T09:00:45.188Z,1001.64
2023-02-01T09:01:45.183Z,1001.66
2023-02-01T09:02:45.144Z,1001.67
2023-02-01T09:03:45.214Z,1001.64
2023-02-01T09:04:45.122Z,1001.66
2023-02-01T09:05:49.688Z,1001.58
2023-02-01T09:06:45.121Z,1001.71
2023-02-01T09:07:45.091Z,1001.71
2023-02-01T09:08:45.098Z,1001.70
2023-02-01T09:09:45.080Z,1001.70
2023-02-01T09:10:45.057Z,1001.68
2023-02-01T09:11:45.047Z,1001.68
2023-02-01T09:12:45.048Z,1001.63
2023-02-01T09:13:45.022Z,1001.71
2023-02-01T09:14:45.042Z,1001.68
2023-02-01T09:15:45.070Z,1001.70
2023-02-01T09:16:44.990Z,1001.69
2023-02-01T09:17:45.015Z,1001.72
2023-02-01T09:18:55.741Z,1001.79
2023-02-01T09:19:45.957Z,1001.68
2023-02-01T09:20:44.944Z,1001.77
2023-02-01T09:21:44.927Z,1001.78
2023-02-01T09:22:44.916Z,1001.85
2023-02-01T09:23:44.932Z,1001.81
2023-02-01T09:24:44.932Z,1001.91
2023-02-01T09:25:44.904Z,1001.91
2023-02-01T09:26:44.921Z,1001.88
2023-02-01T09:27:44.867Z,1001.83
2023-02-01T09:28:44.856Z,1001.89
2023-02-01T09:29:44.902Z,1001.90
2023-02-01T09:30:44.899Z,1001.97
2023-02-01T09:31:57.492Z,1001.92
2023-02-01T09:32:45.809Z,1001.98
2023-02-01T09:33:44.797Z,1002.01
2023-02-01T09:34:44.786Z,1001.95
2023-02-01T09:35:44.811Z,1002.03
2023-02-01T09:36:44.756Z,1002.05
2023-02-01T09:37:44.759Z,1002.03
2023-02-01T09:38:52.656Z,1001.99
2023-02-01T09:39:45.738Z,1002.09
2023-02-01T09:40:44.736Z,1002.04
2023-02-01T09:41:44.736Z,1002.06
2023-02-01T09:42:44.695Z,1002.15
2023-02-01T09:43:44.687Z,1002.05
2023-02-01T09:44:44.936Z,1002.16
2023-02-01T09:45:44.659Z,1002.22
2023-02-01T09:46:44.690Z,1002.16
2023-02-01T09:47:44.659Z,1002.10
2023-02-01T09:48:44.638Z,1002.10
2023-02-01T09:49:44.619Z,1002.16
2023-02-01T09:50:44.596Z,1002.05
2023-02-01T09:51:44.601Z,1001.96
2023-02-01T09:52:44.601Z,1002.06
2023-02-01T09:53:44.588Z,1002.15
2023-02-01T09:54:44.568Z,1002.05
2023-02-01T09:55:44.557Z,1002.07
2023-02-01T09:56:44.537Z,1002.01
2023-02-01T09:57:44.547Z,1001.98
2023-02-01T09:58:44.782Z,1002.14
2023-02-01T09:59:44.511Z,1002.07
2023-02-01T10:00:44.496Z,1001.99
2023-02-01T10:01:44.594Z,1002.02
2023-02-01T10:02:44.469Z,1002.06
2023-02-01T10:03:44.491Z,1002.00
2023-02-01T10:04:44.486Z,1002.08
2023-02-01T10:05:44.448Z,1001.98
2023-02-01T10:06:44.425Z,1002.05
2023-02-01T10:07:44.417Z,1001.95
2023-02-01T10:08:44.398Z,1001.90
2023-02-01T10:09:44.396Z,1001.95
2023-02-01T10:10:44.395Z,1002.02
2023-02-01T10:11:44.375Z,1002.02
2023-02-01T10:12:44.360Z,1001.92
2023-02-01T10:13:44.361Z,1001.89
2023-02-01T10:14:44.347Z,1001.89
2023-02-01T10:15:44.359Z,1001.83
2023-02-01T10:16:44.456Z,1001.90
2023-02-01T10:17:44.298Z,1001.89
2023-02-01T10:18:44.293Z,1001.85
2023-02-01T10:19:44.284Z,1001.92
2023-02-01T10:20:44.282Z,1001.79
2023-02-01T10:21:44.265Z,1001.85
2023-02-01T10:23:13.415Z,1001.81
2023-02-01T10:23:45.245Z,1001.85
2023-02-01T10:24:44.229Z,1001.71
2023-02-01T10:25:44.216Z,1001.74
2023-02-01T10:26:44.207Z,1001.75
2023-02-01T10:27:44.215Z,1001.72
2023-02-01T10:28:44.175Z,1001.70
2023-02-01T10:29:44.173Z,1001.65
2023-02-01T10:30:44.187Z,1001.50
2023-02-01T10:31:44.363Z,1001.63
2023-02-01T10:32:44.154Z,1001.62
2023-02-01T10:33:44.135Z,1001.53
2023-02-01T10:34:44.106Z,1001.70
2023-02-01T10:35:44.096Z,1001.67
2023-02-01T10:36:44.086Z,1001.65
2023-02-01T10:37:44.077Z,1001.71
2023-02-01T10:38:44.086Z,1001.84
2023-02-01T10:39:44.055Z,1001.69
2023-02-01T10:40:44.040Z,1001.76
2023-02-01T10:41:44.031Z,1001.72
2023-02-01T10:42:44.020Z,1001.77
2023-02-01T10:43:44.006Z,1001.70
2023-02-01T10:44:44.016Z,1001.67
2023-02-01T10:45:43.985Z,1001.81
2023-02-01T10:46:44.064Z,1001.68
2023-02-01T10:47:43.970Z,1001.64
2023-02-01T10:48:43.948Z,1001.66
2023-02-01T10:49:43.957Z,1001.62
2023-02-01T10:50:43.941Z,1001.61
2023-02-01T10:51:43.924Z,1001.73
2023-02-01T10:52:44.167Z,1001.69
2023-02-01T10:53:43.906Z,1001.67
2023-02-01T10:54:43.896Z,1001.57
2023-02-01T10:55:43.885Z,1001.67
2023-02-01T10:56:43.869Z,1001.63
2023-02-01T10:57:43.867Z,1001.68
2023-02-01T10:58:43.864Z,1001.63
2023-02-01T10:59:45.734Z,1001.65
2023-02-01T11:00:43.838Z,1001.70
2023-02-01T11:01:43.819Z,1001.75
2023-02-01T11:02:43.813Z,1001.65
2023-02-01T11:03:43.787Z,1001.66
2023-02-01T11:04:43.770Z,1001.66
2023-02-01T11:05:44.811Z,1001.67
2023-02-01T11:06:43.771Z,1001.66
2023-02-01T11:07:43.736Z,1001.65
2023-02-01T11:08:43.726Z,1001.61
2023-02-01T11:09:43.714Z,1001.65
2023-02-01T11:10:43.715Z,1001.70
2023-02-01T11:11:43.716Z,1001.65
2023-02-01T11:12:43.677Z,1001.60
2023-02-01T11:13:43.674Z,1001.60
2023-02-01T11:14:43.656Z,1001.47
2023-02-01T11:15:43.720Z,1001.56
2023-02-01T11:16:43.666Z,1001.56
2023-02-01T11:17:43.644Z,1001.47
2023-02-01T11:18:43.609Z,1001.54
2023-02-01T11:19:43.595Z,1001.54
2023-02-01T11:20:43.613Z,1001.49
2023-02-01T11:21:43.589Z,1001.57
2023-02-01T11:22:43.566Z,1001.44
2023-02-01T11:23:43.575Z,1001.55
2023-02-01T11:24:43.534Z,1001.47
2023-02-01T11:25:43.526Z,1001.53
2023-02-01T11:26:43.641Z,1001.52
2023-02-01T11:27:54.520Z,1001.45
2023-02-01T11:28:44.526Z,1001.61
2023-02-01T11:29:43.486Z,1001.53
2023-02-01T11:30:43.527Z,1001.50
2023-02-01T11:31:43.493Z,1001.57
2023-02-01T11:32:43.444Z,1001.55
2023-02-01T11:33:43.436Z,1001.59
2023-02-01T11:34:43.436Z,1001.67
2023-02-01T11:35:43.479Z,1001.72
2023-02-01T11:36:43.442Z,1001.71
2023-02-01T11:37:43.411Z,1001.81
2023-02-01T11:38:43.424Z,1001.72
2023-02-01T11:39:43.426Z,1001.71
2023-02-01T11:40:43.361Z,1001.69
2023-02-01T11:41:43.353Z,1001.67
2023-02-01T11:42:43.492Z,1001.58
2023-02-01T11:43:43.325Z,1001.53
2023-02-01T11:44:43.338Z,1001.55
2023-02-01T11:45:43.325Z,1001.60
2023-02-01T11:46:43.340Z,1001.64
2023-02-01T11:47:43.287Z,1001.55
2023-02-01T11:48:43.296Z,1001.54
2023-02-01T11:49:43.256Z,1001.49
2023-02-01T11:50:43.264Z,1001.48
2023-02-01T11:51:43.316Z,1001.54
2023-02-01T11:52:43.247Z,1001.46
2023-02-01T11:53:43.223Z,1001.49
2023-02-01T11:54:43.196Z,1001.47
2023-02-01T11:55:43.211Z,1001.38
2023-02-01T11:56:43.176Z,1001.40
2023-02-01T11:57:43.190Z,1001.38
2023-02-01T11:58:43.162Z,1001.54
2023-02-01T11:59:48.707Z,1001.51
2023-02-01T12:00:44.131Z,1001.53
2023-02-01T12:01:43.162Z,1001.37
2023-02-01T12:02:44.528Z,1001.43
2023-02-01T12:03:43.104Z,1001.41
2023-02-01T12:04:43.093Z,1001.44
2023-02-01T12:05:43.088Z,1001.37